sensor_id;sensor_type;location;lat;lon;timestamp;P1;durP1;ratioP1;P2;durP2;ratioP2
39694;SDS011;25367;-35.352;149.036;2022-10-17T00:01:43;0.30;;;0.28;;
39694;SDS011;25367;-35.352;149.036;2022-10-17T00:04:12;1.73;;;0.47;;
39694;SDS011;25367;-35.352;149.036;2022-10-17T00:06:41;0.50;;;0.30;;
39694;SDS011;25367;-35.352;149.036;2022-10-17T00:09:10;0.75;;;0.28;;
39694;SDS011;25367;-35.352;149.036;2022-10-17T00:11:40;0.60;;;0.20;;
39694;SDS011;25367;-35.352;149.036;2022-10-17T00:14:11;1.13;;;0.50;;
39694;SDS011;25367;-35.352;149.036;2022-10-17T00:16:40;0.47;;;0.40;;
39694;SDS011;25367;-35.352;149.036;2022-10-17T00:19:28;2.58;;;0.52;;
39694;SDS011;25367;-35.352;149.036;2022-10-17T00:21:58;1.13;;;0.50;;
39694;SDS011;25367;-35.352;149.036;2022-10-17T00:24:29;0.30;;;0.10;;
39694;SDS011;25367;-35.352;149.036;2022-10-17T00:26:58;0.88;;;0.25;;
39694;SDS011;25367;-35.352;149.036;2022-10-17T00:29:30;2.90;;;0.30;;
39694;SDS011;25367;-35.352;149.036;2022-10-17T00:31:59;0.50;;;0.32;;
39694;SDS011;25367;-35.352;149.036;2022-10-17T00:34:29;1.45;;;0.45;;
39694;SDS011;25367;-35.352;149.036;2022-10-17T00:36:58;0.68;;;0.25;;
39694;SDS011;25367;-35.352;149.036;2022-10-17T00:39:27;2.70;;;0.52;;
39694;SDS011;25367;-35.352;149.036;2022-10-17T00:41:57;1.00;;;0.35;;
39694;SDS011;25367;-35.352;149.036;2022-10-17T00:49:59;0.32;;;0.20;;
39694;SDS011;25367;-35.352;149.036;2022-10-17T00:52:29;0.17;;;0.17;;
39694;SDS011;25367;-35.352;149.036;2022-10-17T00:54:59;0.93;;;0.38;;
39694;SDS011;25367;-35.352;149.036;2022-10-17T00:57:34;1.13;;;0.47;;
39694;SDS011;25367;-35.352;149.036;2022-10-17T01:00:06;2.53;;;0.30;;
39694;SDS011;25367;-35.352;149.036;2022-10-17T01:02:37;0.52;;;0.20;;
39694;SDS011;25367;-35.352;149.036;2022-10-17T01:05:07;0.52;;;0.38;;
39694;SDS011;25367;-35.352;149.036;2022-10-17T01:07:37;0.20;;;0.10;;
39694;SDS011;25367;-35.352;149.036;2022-10-17T01:10:08;0.88;;;0.40;;
39694;SDS011;25367;-35.352;149.036;2022-10-17T01:12:46;0.90;;;0.20;;
39694;SDS011;25367;-35.352;149.036;2022-10-17T01:15:30;0.40;;;0.20;;
39694;SDS011;25367;-35.352;149.036;2022-10-17T01:18:11;2.47;;;0.30;;
39694;SDS011;25367;-35.352;149.036;2022-10-17T01:27:24;1.13;;;0.40;;
39694;SDS011;25367;-35.352;149.036;2022-10-17T01:33:22;1.20;;;0.32;;
39694;SDS011;25367;-35.352;149.036;2022-10-17T01:36:04;1.85;;;0.40;;
39694;SDS011;25367;-35.352;149.036;2022-10-17T01:38:40;1.20;;;0.43;;
39694;SDS011;25367;-35.352;149.036;2022-10-17T01:41:17;2.10;;;0.40;;
39694;SDS011;25367;-35.352;149.036;2022-10-17T01:43:53;0.57;;;0.35;;
39694;SDS011;25367;-35.352;149.036;2022-10-17T01:46:26;2.10;;;0.60;;
39694;SDS011;25367;-35.352;149.036;2022-10-17T01:49:02;1.23;;;0.40;;
39694;SDS011;25367;-35.352;149.036;2022-10-17T01:51:35;1.50;;;0.43;;
39694;SDS011;25367;-35.352;149.036;2022-10-17T01:54:09;4.25;;;0.80;;
39694;SDS011;25367;-35.352;149.036;2022-10-17T01:56:42;1.73;;;0.30;;
39694;SDS011;25367;-35.352;149.036;2022-10-17T01:59:15;0.55;;;0.30;;
39694;SDS011;25367;-35.352;149.036;2022-10-17T02:01:48;0.77;;;0.40;;
39694;SDS011;25367;-35.352;149.036;2022-10-17T02:04:21;3.37;;;0.30;;
39694;SDS011;25367;-35.352;149.036;2022-10-17T02:06:52;7.32;;;0.45;;
39694;SDS011;25367;-35.352;149.036;2022-10-17T02:09:24;7.65;;;0.77;;
39694;SDS011;25367;-35.352;149.036;2022-10-17T02:12:01;3.50;;;0.70;;
39694;SDS011;25367;-35.352;149.036;2022-10-17T02:14:46;1.88;;;0.60;;
39694;SDS011;25367;-35.352;149.036;2022-10-17T02:17:28;3.88;;;0.60;;
39694;SDS011;25367;-35.352;149.036;2022-10-17T02:20:07;4.03;;;0.63;;
39694;SDS011;25367;-35.352;149.036;2022-10-17T02:22:45;1.70;;;0.45;;
39694;SDS011;25367;-35.352;149.036;2022-10-17T02:25:22;2.22;;;0.60;;
39694;SDS011;25367;-35.352;149.036;2022-10-17T02:28:05;1.63;;;0.40;;
39694;SDS011;25367;-35.352;149.036;2022-10-17T02:30:43;4.85;;;0.38;;
39694;SDS011;25367;-35.352;149.036;2022-10-17T02:33:19;2.08;;;0.50;;
39694;SDS011;25367;-35.352;149.036;2022-10-17T02:35:53;0.98;;;0.43;;
39694;SDS011;25367;-35.352;149.036;2022-10-17T02:38:27;0.52;;;0.22;;
39694;SDS011;25367;-35.352;149.036;2022-10-17T02:40:57;1.92;;;0.63;;
39694;SDS011;25367;-35.352;149.036;2022-10-17T02:43:27;2.90;;;0.55;;
39694;SDS011;25367;-35.352;149.036;2022-10-17T02:45:58;1.08;;;0.50;;
39694;SDS011;25367;-35.352;149.036;2022-10-17T02:48:29;1.70;;;0.40;;
39694;SDS011;25367;-35.352;149.036;2022-10-17T02:51:06;5.25;;;0.50;;
39694;SDS011;25367;-35.352;149.036;2022-10-17T02:53:42;1.90;;;0.50;;
39694;SDS011;25367;-35.352;149.036;2022-10-17T02:56:20;1.70;;;0.40;;
39694;SDS011;25367;-35.352;149.036;2022-10-17T02:58:51;1.27;;;0.50;;
39694;SDS011;25367;-35.352;149.036;2022-10-17T03:01:24;1.35;;;0.30;;
39694;SDS011;25367;-35.352;149.036;2022-10-17T03:04:03;0.28;;;0.25;;
39694;SDS011;25367;-35.352;149.036;2022-10-17T03:06:37;6.00;;;0.70;;
39694;SDS011;25367;-35.352;149.036;2022-10-17T03:09:08;2.17;;;0.52;;
39694;SDS011;25367;-35.352;149.036;2022-10-17T03:11:37;2.00;;;0.40;;
39694;SDS011;25367;-35.352;149.036;2022-10-17T03:14:08;0.63;;;0.40;;
39694;SDS011;25367;-35.352;149.036;2022-10-17T03:16:37;1.40;;;0.40;;
39694;SDS011;25367;-35.352;149.036;2022-10-17T03:19:07;0.93;;;0.47;;
39694;SDS011;25367;-35.352;149.036;2022-10-17T03:21:38;1.08;;;0.30;;
39694;SDS011;25367;-35.352;149.036;2022-10-17T03:24:08;0.30;;;0.20;;
39694;SDS011;25367;-35.352;149.036;2022-10-17T03:26:38;2.47;;;0.50;;
39694;SDS011;25367;-35.352;149.036;2022-10-17T03:29:08;1.52;;;0.40;;
39694;SDS011;25367;-35.352;149.036;2022-10-17T03:31:38;1.92;;;0.55;;
39694;SDS011;25367;-35.352;149.036;2022-10-17T03:34:09;2.53;;;0.40;;
39694;SDS011;25367;-35.352;149.036;2022-10-17T03:36:40;2.25;;;0.57;;
39694;SDS011;25367;-35.352;149.036;2022-10-17T03:39:09;27.90;;;14.88;;
39694;SDS011;25367;-35.352;149.036;2022-10-17T03:41:39;15.10;;;7.95;;
39694;SDS011;25367;-35.352;149.036;2022-10-17T03:44:09;15.65;;;7.78;;
39694;SDS011;25367;-35.352;149.036;2022-10-17T03:46:39;11.60;;;6.47;;
39694;SDS011;25367;-35.352;149.036;2022-10-17T03:49:08;14.00;;;7.45;;
39694;SDS011;25367;-35.352;149.036;2022-10-17T03:51:39;13.20;;;7.00;;
39694;SDS011;25367;-35.352;149.036;2022-10-17T03:54:12;13.55;;;7.00;;
39694;SDS011;25367;-35.352;149.036;2022-10-17T03:56:42;15.70;;;7.50;;
39694;SDS011;25367;-35.352;149.036;2022-10-17T03:59:15;11.73;;;6.68;;
39694;SDS011;25367;-35.352;149.036;2022-10-17T04:01:53;11.02;;;6.15;;
39694;SDS011;25367;-35.352;149.036;2022-10-17T04:04:23;12.65;;;6.95;;
39694;SDS011;25367;-35.352;149.036;2022-10-17T04:06:54;12.52;;;6.93;;
39694;SDS011;25367;-35.352;149.036;2022-10-17T04:09:24;12.35;;;6.75;;
39694;SDS011;25367;-35.352;149.036;2022-10-17T04:12:02;15.48;;;7.22;;
39694;SDS011;25367;-35.352;149.036;2022-10-17T04:14:33;11.30;;;7.07;;
39694;SDS011;25367;-35.352;149.036;2022-10-17T04:17:03;11.98;;;7.32;;
39694;SDS011;25367;-35.352;149.036;2022-10-17T04:19:33;11.13;;;6.35;;
39694;SDS011;25367;-35.352;149.036;2022-10-17T04:22:05;12.55;;;7.32;;
39694;SDS011;25367;-35.352;149.036;2022-10-17T04:24:37;9.70;;;6.30;;
39694;SDS011;25367;-35.352;149.036;2022-10-17T04:27:10;14.93;;;7.07;;
39694;SDS011;25367;-35.352;149.036;2022-10-17T04:29:43;12.88;;;6.88;;
39694;SDS011;25367;-35.352;149.036;2022-10-17T04:32:17;11.63;;;6.85;;
39694;SDS011;25367;-35.352;149.036;2022-10-17T04:35:03;11.50;;;6.90;;
39694;SDS011;25367;-35.352;149.036;2022-10-17T04:37:35;11.40;;;7.03;;
39694;SDS011;25367;-35.352;149.036;2022-10-17T04:40:11;10.80;;;6.45;;
39694;SDS011;25367;-35.352;149.036;2022-10-17T04:42:41;11.68;;;6.18;;
39694;SDS011;25367;-35.352;149.036;2022-10-17T04:45:13;12.57;;;6.70;;
39694;SDS011;25367;-35.352;149.036;2022-10-17T04:47:43;11.57;;;6.78;;
39694;SDS011;25367;-35.352;149.036;2022-10-17T04:50:12;12.27;;;7.38;;
39694;SDS011;25367;-35.352;149.036;2022-10-17T04:52:45;11.25;;;6.82;;
39694;SDS011;25367;-35.352;149.036;2022-10-17T04:55:15;13.18;;;7.72;;
39694;SDS011;25367;-35.352;149.036;2022-10-17T04:57:44;12.98;;;6.95;;
39694;SDS011;25367;-35.352;149.036;2022-10-17T05:00:20;12.00;;;7.22;;
39694;SDS011;25367;-35.352;149.036;2022-10-17T05:03:12;10.50;;;6.93;;
39694;SDS011;25367;-35.352;149.036;2022-10-17T05:05:44;11.27;;;7.00;;
39694;SDS011;25367;-35.352;149.036;2022-10-17T05:08:17;13.32;;;7.03;;
39694;SDS011;25367;-35.352;149.036;2022-10-17T05:10:46;14.52;;;7.70;;
39694;SDS011;25367;-35.352;149.036;2022-10-17T05:13:19;11.07;;;7.72;;
39694;SDS011;25367;-35.352;149.036;2022-10-17T05:15:49;12.77;;;7.53;;
39694;SDS011;25367;-35.352;149.036;2022-10-17T05:18:18;12.18;;;7.53;;
39694;SDS011;25367;-35.352;149.036;2022-10-17T05:20:47;13.77;;;7.35;;
39694;SDS011;25367;-35.352;149.036;2022-10-17T05:23:20;11.48;;;7.35;;
39694;SDS011;25367;-35.352;149.036;2022-10-17T05:25:53;12.00;;;7.33;;
39694;SDS011;25367;-35.352;149.036;2022-10-17T05:28:25;13.73;;;7.97;;
39694;SDS011;25367;-35.352;149.036;2022-10-17T05:31:01;13.52;;;7.47;;
39694;SDS011;25367;-35.352;149.036;2022-10-17T05:33:31;12.20;;;7.47;;
39694;SDS011;25367;-35.352;149.036;2022-10-17T05:36:01;11.65;;;7.40;;
39694;SDS011;25367;-35.352;149.036;2022-10-17T05:38:33;11.95;;;7.28;;
39694;SDS011;25367;-35.352;149.036;2022-10-17T05:41:03;11.80;;;7.22;;
39694;SDS011;25367;-35.352;149.036;2022-10-17T05:43:33;12.65;;;7.38;;
39694;SDS011;25367;-35.352;149.036;2022-10-17T05:46:03;13.93;;;7.32;;
39694;SDS011;25367;-35.352;149.036;2022-10-17T05:48:34;10.43;;;6.80;;
39694;SDS011;25367;-35.352;149.036;2022-10-17T05:51:04;9.95;;;6.95;;
39694;SDS011;25367;-35.352;149.036;2022-10-17T05:53:38;14.10;;;7.57;;
39694;SDS011;25367;-35.352;149.036;2022-10-17T05:56:12;9.75;;;6.55;;
39694;SDS011;25367;-35.352;149.036;2022-10-17T05:58:42;10.55;;;6.50;;
39694;SDS011;25367;-35.352;149.036;2022-10-17T06:01:21;13.07;;;6.82;;
39694;SDS011;25367;-35.352;149.036;2022-10-17T06:03:51;9.63;;;6.13;;
39694;SDS011;25367;-35.352;149.036;2022-10-17T06:06:21;9.95;;;5.95;;
39694;SDS011;25367;-35.352;149.036;2022-10-17T06:08:53;9.93;;;6.18;;
39694;SDS011;25367;-35.352;149.036;2022-10-17T06:11:28;11.85;;;6.70;;
39694;SDS011;25367;-35.352;149.036;2022-10-17T06:13:58;9.02;;;6.40;;
39694;SDS011;25367;-35.352;149.036;2022-10-17T06:16:29;9.80;;;6.15;;
39694;SDS011;25367;-35.352;149.036;2022-10-17T06:18:58;9.15;;;5.75;;
39694;SDS011;25367;-35.352;149.036;2022-10-17T06:21:27;8.95;;;5.28;;
39694;SDS011;25367;-35.352;149.036;2022-10-17T06:24:07;9.20;;;6.38;;
39694;SDS011;25367;-35.352;149.036;2022-10-17T06:29:08;9.65;;;5.88;;
39694;SDS011;25367;-35.352;149.036;2022-10-17T06:31:43;8.70;;;5.80;;
39694;SDS011;25367;-35.352;149.036;2022-10-17T06:34:13;7.93;;;5.07;;
39694;SDS011;25367;-35.352;149.036;2022-10-17T06:36:44;8.73;;;5.40;;
39694;SDS011;25367;-35.352;149.036;2022-10-17T06:39:15;8.25;;;5.35;;
39694;SDS011;25367;-35.352;149.036;2022-10-17T06:41:56;9.15;;;5.18;;
39694;SDS011;25367;-35.352;149.036;2022-10-17T06:44:39;9.05;;;5.30;;
39694;SDS011;25367;-35.352;149.036;2022-10-17T06:47:27;10.20;;;5.55;;
39694;SDS011;25367;-35.352;149.036;2022-10-17T06:49:59;9.23;;;5.00;;
39694;SDS011;25367;-35.352;149.036;2022-10-17T06:52:41;8.93;;;5.95;;
39694;SDS011;25367;-35.352;149.036;2022-10-17T06:55:45;7.28;;;5.05;;
39694;SDS011;25367;-35.352;149.036;2022-10-17T06:58:26;7.68;;;4.85;;
39694;SDS011;25367;-35.352;149.036;2022-10-17T07:01:09;10.52;;;4.15;;
39694;SDS011;25367;-35.352;149.036;2022-10-17T07:03:40;13.63;;;3.60;;
39694;SDS011;25367;-35.352;149.036;2022-10-17T07:06:10;15.18;;;4.43;;
39694;SDS011;25367;-35.352;149.036;2022-10-17T07:08:41;11.65;;;4.85;;
39694;SDS011;25367;-35.352;149.036;2022-10-17T07:11:18;9.98;;;3.85;;
39694;SDS011;25367;-35.352;149.036;2022-10-17T07:13:51;7.28;;;4.30;;
39694;SDS011;25367;-35.352;149.036;2022-10-17T07:16:21;8.60;;;4.18;;
39694;SDS011;25367;-35.352;149.036;2022-10-17T07:18:59;11.10;;;4.53;;
39694;SDS011;25367;-35.352;149.036;2022-10-17T07:21:34;16.75;;;3.97;;
39694;SDS011;25367;-35.352;149.036;2022-10-17T07:24:04;8.50;;;3.80;;
39694;SDS011;25367;-35.352;149.036;2022-10-17T07:26:36;13.93;;;3.72;;
39694;SDS011;25367;-35.352;149.036;2022-10-17T07:29:06;29.30;;;5.40;;
39694;SDS011;25367;-35.352;149.036;2022-10-17T07:31:59;8.20;;;4.93;;
39694;SDS011;25367;-35.352;149.036;2022-10-17T07:34:29;8.73;;;4.47;;
39694;SDS011;25367;-35.352;149.036;2022-10-17T07:37:00;7.78;;;4.43;;
39694;SDS011;25367;-35.352;149.036;2022-10-17T07:39:30;14.15;;;4.13;;
39694;SDS011;25367;-35.352;149.036;2022-10-17T07:42:01;9.93;;;4.57;;
39694;SDS011;25367;-35.352;149.036;2022-10-17T07:44:31;9.52;;;4.00;;
39694;SDS011;25367;-35.352;149.036;2022-10-17T07:47:01;11.50;;;3.92;;
39694;SDS011;25367;-35.352;149.036;2022-10-17T07:49:30;20.67;;;4.40;;
39694;SDS011;25367;-35.352;149.036;2022-10-17T07:51:59;16.70;;;3.33;;
39694;SDS011;25367;-35.352;149.036;2022-10-17T07:54:29;7.20;;;3.88;;
39694;SDS011;25367;-35.352;149.036;2022-10-17T07:56:58;14.80;;;3.58;;
39694;SDS011;25367;-35.352;149.036;2022-10-17T07:59:31;10.57;;;4.10;;
39694;SDS011;25367;-35.352;149.036;2022-10-17T08:02:01;10.80;;;3.97;;
39694;SDS011;25367;-35.352;149.036;2022-10-17T08:04:32;16.15;;;3.40;;
39694;SDS011;25367;-35.352;149.036;2022-10-17T08:07:01;19.95;;;3.58;;
39694;SDS011;25367;-35.352;149.036;2022-10-17T08:09:31;14.60;;;3.90;;
39694;SDS011;25367;-35.352;149.036;2022-10-17T08:12:02;15.98;;;4.47;;
39694;SDS011;25367;-35.352;149.036;2022-10-17T08:14:32;12.20;;;3.55;;
39694;SDS011;25367;-35.352;149.036;2022-10-17T08:17:01;10.20;;;4.07;;
39694;SDS011;25367;-35.352;149.036;2022-10-17T08:19:31;13.00;;;3.28;;
39694;SDS011;25367;-35.352;149.036;2022-10-17T08:22:00;17.42;;;4.07;;
39694;SDS011;25367;-35.352;149.036;2022-10-17T08:24:30;8.60;;;3.05;;
39694;SDS011;25367;-35.352;149.036;2022-10-17T08:26:59;9.63;;;3.65;;
39694;SDS011;25367;-35.352;149.036;2022-10-17T08:29:32;13.10;;;3.50;;
39694;SDS011;25367;-35.352;149.036;2022-10-17T08:32:01;11.15;;;3.00;;
39694;SDS011;25367;-35.352;149.036;2022-10-17T08:34:31;11.88;;;3.53;;
39694;SDS011;25367;-35.352;149.036;2022-10-17T08:37:00;12.82;;;3.13;;
39694;SDS011;25367;-35.352;149.036;2022-10-17T08:39:30;7.47;;;2.72;;
39694;SDS011;25367;-35.352;149.036;2022-10-17T08:42:07;10.70;;;2.83;;
39694;SDS011;25367;-35.352;149.036;2022-10-17T08:44:55;6.97;;;3.05;;
39694;SDS011;25367;-35.352;149.036;2022-10-17T08:47:34;9.90;;;3.03;;
39694;SDS011;25367;-35.352;149.036;2022-10-17T08:50:06;6.97;;;3.03;;
39694;SDS011;25367;-35.352;149.036;2022-10-17T08:52:39;7.68;;;2.80;;
39694;SDS011;25367;-35.352;149.036;2022-10-17T08:55:13;7.80;;;3.10;;
39694;SDS011;25367;-35.352;149.036;2022-10-17T08:57:49;7.60;;;2.47;;
39694;SDS011;25367;-35.352;149.036;2022-10-17T09:00:19;8.15;;;2.58;;
39694;SDS011;25367;-35.352;149.036;2022-10-17T09:02:56;7.70;;;3.15;;
39694;SDS011;25367;-35.352;149.036;2022-10-17T09:05:37;11.55;;;2.90;;
39694;SDS011;25367;-35.352;149.036;2022-10-17T09:08:17;9.88;;;2.88;;
39694;SDS011;25367;-35.352;149.036;2022-10-17T09:10:57;12.52;;;3.28;;
39694;SDS011;25367;-35.352;149.036;2022-10-17T09:13:36;4.65;;;2.60;;
39694;SDS011;25367;-35.352;149.036;2022-10-17T09:16:33;4.30;;;2.22;;
39694;SDS011;25367;-35.352;149.036;2022-10-17T09:19:16;5.60;;;2.35;;
39694;SDS011;25367;-35.352;149.036;2022-10-17T09:21:51;4.28;;;1.98;;
39694;SDS011;25367;-35.352;149.036;2022-10-17T09:24:26;4.68;;;2.22;;
39694;SDS011;25367;-35.352;149.036;2022-10-17T09:27:03;4.75;;;2.45;;
39694;SDS011;25367;-35.352;149.036;2022-10-17T09:29:41;10.45;;;2.67;;
39694;SDS011;25367;-35.352;149.036;2022-10-17T09:32:16;6.15;;;2.20;;
39694;SDS011;25367;-35.352;149.036;2022-10-17T09:34:49;8.15;;;2.22;;
39694;SDS011;25367;-35.352;149.036;2022-10-17T09:37:21;4.25;;;2.38;;
39694;SDS011;25367;-35.352;149.036;2022-10-17T09:39:57;12.82;;;2.30;;
39694;SDS011;25367;-35.352;149.036;2022-10-17T09:42:27;4.93;;;2.25;;
39694;SDS011;25367;-35.352;149.036;2022-10-17T09:45:01;5.00;;;2.45;;
39694;SDS011;25367;-35.352;149.036;2022-10-17T09:47:41;4.45;;;1.98;;
39694;SDS011;25367;-35.352;149.036;2022-10-17T09:50:15;5.03;;;1.85;;
39694;SDS011;25367;-35.352;149.036;2022-10-17T09:52:51;3.75;;;1.90;;
39694;SDS011;25367;-35.352;149.036;2022-10-17T09:55:25;18.60;;;2.22;;
39694;SDS011;25367;-35.352;149.036;2022-10-17T09:58:04;8.02;;;2.15;;
39694;SDS011;25367;-35.352;149.036;2022-10-17T10:00:37;12.07;;;2.67;;
39694;SDS011;25367;-35.352;149.036;2022-10-17T10:03:09;6.50;;;1.85;;
39694;SDS011;25367;-35.352;149.036;2022-10-17T10:05:41;4.88;;;1.38;;
39694;SDS011;25367;-35.352;149.036;2022-10-17T10:08:25;5.47;;;2.22;;
39694;SDS011;25367;-35.352;149.036;2022-10-17T10:11:00;14.43;;;2.30;;
39694;SDS011;25367;-35.352;149.036;2022-10-17T10:13:31;12.75;;;2.30;;
39694;SDS011;25367;-35.352;149.036;2022-10-17T10:18:57;6.68;;;1.98;;
39694;SDS011;25367;-35.352;149.036;2022-10-17T10:21:27;5.45;;;1.67;;
39694;SDS011;25367;-35.352;149.036;2022-10-17T10:24:03;4.35;;;1.55;;
39694;SDS011;25367;-35.352;149.036;2022-10-17T10:26:38;3.83;;;1.70;;
39694;SDS011;25367;-35.352;149.036;2022-10-17T10:29:18;4.55;;;1.50;;
39694;SDS011;25367;-35.352;149.036;2022-10-17T10:31:53;19.10;;;2.10;;
39694;SDS011;25367;-35.352;149.036;2022-10-17T10:34:24;5.07;;;1.52;;
39694;SDS011;25367;-35.352;149.036;2022-10-17T10:36:57;6.90;;;1.52;;
39694;SDS011;25367;-35.352;149.036;2022-10-17T10:39:36;3.00;;;1.20;;
39694;SDS011;25367;-35.352;149.036;2022-10-17T10:42:15;6.03;;;1.45;;
39694;SDS011;25367;-35.352;149.036;2022-10-17T10:44:52;3.78;;;1.13;;
39694;SDS011;25367;-35.352;149.036;2022-10-17T10:47:26;2.92;;;1.10;;
39694;SDS011;25367;-35.352;149.036;2022-10-17T10:50:16;4.47;;;1.50;;
39694;SDS011;25367;-35.352;149.036;2022-10-17T10:52:56;5.68;;;1.13;;
39694;SDS011;25367;-35.352;149.036;2022-10-17T10:55:46;3.95;;;1.25;;
39694;SDS011;25367;-35.352;149.036;2022-10-17T10:58:22;3.28;;;1.10;;
39694;SDS011;25367;-35.352;149.036;2022-10-17T11:00:57;3.60;;;1.17;;
39694;SDS011;25367;-35.352;149.036;2022-10-17T11:03:34;2.55;;;1.02;;
39694;SDS011;25367;-35.352;149.036;2022-10-17T11:06:11;2.42;;;1.27;;
39694;SDS011;25367;-35.352;149.036;2022-10-17T11:08:46;4.43;;;1.55;;
39694;SDS011;25367;-35.352;149.036;2022-10-17T11:11:23;5.20;;;1.50;;
39694;SDS011;25367;-35.352;149.036;2022-10-17T11:13:57;7.18;;;1.40;;
39694;SDS011;25367;-35.352;149.036;2022-10-17T11:16:32;2.78;;;1.20;;
39694;SDS011;25367;-35.352;149.036;2022-10-17T11:19:09;3.53;;;1.27;;
39694;SDS011;25367;-35.352;149.036;2022-10-17T11:21:45;3.67;;;1.67;;
39694;SDS011;25367;-35.352;149.036;2022-10-17T11:24:20;4.38;;;0.98;;
39694;SDS011;25367;-35.352;149.036;2022-10-17T11:26:53;3.83;;;1.40;;
39694;SDS011;25367;-35.352;149.036;2022-10-17T11:29:26;6.28;;;1.33;;
39694;SDS011;25367;-35.352;149.036;2022-10-17T11:31:58;3.90;;;1.20;;
39694;SDS011;25367;-35.352;149.036;2022-10-17T11:34:34;2.00;;;1.10;;
39694;SDS011;25367;-35.352;149.036;2022-10-17T11:37:08;3.17;;;1.10;;
39694;SDS011;25367;-35.352;149.036;2022-10-17T11:39:43;5.25;;;1.30;;
39694;SDS011;25367;-35.352;149.036;2022-10-17T11:42:19;2.97;;;1.25;;
39694;SDS011;25367;-35.352;149.036;2022-10-17T11:44:54;5.32;;;1.45;;
39694;SDS011;25367;-35.352;149.036;2022-10-17T11:47:30;3.78;;;1.67;;
39694;SDS011;25367;-35.352;149.036;2022-10-17T11:50:11;2.10;;;1.10;;
39694;SDS011;25367;-35.352;149.036;2022-10-17T11:52:47;2.17;;;1.02;;
39694;SDS011;25367;-35.352;149.036;2022-10-17T11:55:20;1.83;;;1.10;;
39694;SDS011;25367;-35.352;149.036;2022-10-17T11:58:03;2.60;;;1.05;;
39694;SDS011;25367;-35.352;149.036;2022-10-17T12:01:02;4.78;;;1.02;;
39694;SDS011;25367;-35.352;149.036;2022-10-17T12:03:41;1.30;;;0.88;;
39694;SDS011;25367;-35.352;149.036;2022-10-17T12:06:27;1.92;;;1.10;;
39694;SDS011;25367;-35.352;149.036;2022-10-17T12:09:07;2.25;;;1.38;;
39694;SDS011;25367;-35.352;149.036;2022-10-17T12:11:46;2.45;;;1.40;;
39694;SDS011;25367;-35.352;149.036;2022-10-17T12:14:34;2.03;;;0.98;;
39694;SDS011;25367;-35.352;149.036;2022-10-17T12:17:21;3.28;;;1.27;;
39694;SDS011;25367;-35.352;149.036;2022-10-17T12:20:17;2.85;;;1.27;;
39694;SDS011;25367;-35.352;149.036;2022-10-17T12:23:00;2.90;;;1.13;;
39694;SDS011;25367;-35.352;149.036;2022-10-17T12:25:48;2.05;;;1.20;;
39694;SDS011;25367;-35.352;149.036;2022-10-17T12:28:22;2.13;;;0.65;;
39694;SDS011;25367;-35.352;149.036;2022-10-17T12:30:55;2.50;;;0.80;;
39694;SDS011;25367;-35.352;149.036;2022-10-17T12:33:28;3.35;;;1.20;;
39694;SDS011;25367;-35.352;149.036;2022-10-17T12:42:43;2.22;;;1.00;;
39694;SDS011;25367;-35.352;149.036;2022-10-17T12:48:12;1.83;;;1.05;;
39694;SDS011;25367;-35.352;149.036;2022-10-17T12:50:59;3.25;;;1.35;;
39694;SDS011;25367;-35.352;149.036;2022-10-17T12:53:33;1.95;;;1.02;;
39694;SDS011;25367;-35.352;149.036;2022-10-17T12:56:06;1.67;;;1.00;;
39694;SDS011;25367;-35.352;149.036;2022-10-17T12:58:39;2.90;;;1.23;;
39694;SDS011;25367;-35.352;149.036;2022-10-17T13:01:13;1.80;;;1.00;;
39694;SDS011;25367;-35.352;149.036;2022-10-17T13:03:48;2.70;;;1.15;;
39694;SDS011;25367;-35.352;149.036;2022-10-17T13:06:19;1.70;;;0.70;;
39694;SDS011;25367;-35.352;149.036;2022-10-17T13:08:51;1.55;;;0.90;;
39694;SDS011;25367;-35.352;149.036;2022-10-17T13:11:24;3.70;;;1.15;;
39694;SDS011;25367;-35.352;149.036;2022-10-17T13:14:01;3.77;;;0.83;;
39694;SDS011;25367;-35.352;149.036;2022-10-17T13:16:37;2.75;;;1.13;;
39694;SDS011;25367;-35.352;149.036;2022-10-17T13:19:11;3.00;;;1.00;;
39694;SDS011;25367;-35.352;149.036;2022-10-17T13:21:48;1.95;;;0.90;;
39694;SDS011;25367;-35.352;149.036;2022-10-17T13:24:22;7.90;;;1.17;;
39694;SDS011;25367;-35.352;149.036;2022-10-17T13:26:55;2.85;;;1.05;;
39694;SDS011;25367;-35.352;149.036;2022-10-17T13:29:28;5.45;;;1.35;;
39694;SDS011;25367;-35.352;149.036;2022-10-17T13:31:58;1.52;;;0.80;;
39694;SDS011;25367;-35.352;149.036;2022-10-17T13:34:29;3.28;;;0.80;;
39694;SDS011;25367;-35.352;149.036;2022-10-17T13:37:00;3.08;;;1.10;;
39694;SDS011;25367;-35.352;149.036;2022-10-17T13:39:33;2.75;;;1.00;;
39694;SDS011;25367;-35.352;149.036;2022-10-17T13:42:05;1.98;;;0.70;;
39694;SDS011;25367;-35.352;149.036;2022-10-17T13:44:43;2.35;;;1.08;;
39694;SDS011;25367;-35.352;149.036;2022-10-17T13:47:24;3.00;;;0.93;;
39694;SDS011;25367;-35.352;149.036;2022-10-17T13:49:54;3.20;;;1.08;;
39694;SDS011;25367;-35.352;149.036;2022-10-17T13:52:25;2.00;;;1.10;;
39694;SDS011;25367;-35.352;149.036;2022-10-17T13:55:05;1.48;;;0.60;;
39694;SDS011;25367;-35.352;149.036;2022-10-17T13:57:36;1.52;;;1.00;;
39694;SDS011;25367;-35.352;149.036;2022-10-17T14:00:10;2.55;;;0.88;;
39694;SDS011;25367;-35.352;149.036;2022-10-17T14:02:45;3.40;;;0.93;;
39694;SDS011;25367;-35.352;149.036;2022-10-17T14:05:15;3.05;;;0.85;;
39694;SDS011;25367;-35.352;149.036;2022-10-17T14:07:49;1.70;;;0.50;;
39694;SDS011;25367;-35.352;149.036;2022-10-17T14:10:20;2.67;;;0.90;;
39694;SDS011;25367;-35.352;149.036;2022-10-17T14:12:52;3.13;;;0.95;;
39694;SDS011;25367;-35.352;149.036;2022-10-17T14:15:24;2.05;;;0.82;;
39694;SDS011;25367;-35.352;149.036;2022-10-17T14:17:55;2.22;;;0.68;;
39694;SDS011;25367;-35.352;149.036;2022-10-17T14:20:26;2.35;;;1.05;;
39694;SDS011;25367;-35.352;149.036;2022-10-17T14:22:56;4.00;;;0.85;;
39694;SDS011;25367;-35.352;149.036;2022-10-17T14:25:27;2.28;;;0.88;;
39694;SDS011;25367;-35.352;149.036;2022-10-17T14:28:00;1.83;;;0.80;;
39694;SDS011;25367;-35.352;149.036;2022-10-17T14:30:43;1.73;;;0.70;;
39694;SDS011;25367;-35.352;149.036;2022-10-17T14:33:22;2.25;;;0.80;;
39694;SDS011;25367;-35.352;149.036;2022-10-17T14:35:54;1.83;;;0.80;;
39694;SDS011;25367;-35.352;149.036;2022-10-17T14:38:25;1.65;;;0.75;;
39694;SDS011;25367;-35.352;149.036;2022-10-17T14:40:57;1.75;;;1.02;;
39694;SDS011;25367;-35.352;149.036;2022-10-17T14:43:29;0.95;;;0.60;;
39694;SDS011;25367;-35.352;149.036;2022-10-17T14:46:02;1.80;;;0.80;;
39694;SDS011;25367;-35.352;149.036;2022-10-17T14:48:32;2.00;;;0.90;;
39694;SDS011;25367;-35.352;149.036;2022-10-17T14:51:08;2.80;;;0.90;;
39694;SDS011;25367;-35.352;149.036;2022-10-17T14:53:39;1.83;;;0.85;;
39694;SDS011;25367;-35.352;149.036;2022-10-17T14:56:20;1.38;;;0.73;;
39694;SDS011;25367;-35.352;149.036;2022-10-17T14:58:51;1.00;;;0.57;;
39694;SDS011;25367;-35.352;149.036;2022-10-17T15:01:23;0.77;;;0.57;;
39694;SDS011;25367;-35.352;149.036;2022-10-17T15:03:53;0.63;;;0.40;;
39694;SDS011;25367;-35.352;149.036;2022-10-17T15:06:25;1.48;;;0.60;;
39694;SDS011;25367;-35.352;149.036;2022-10-17T15:08:56;2.28;;;1.00;;
39694;SDS011;25367;-35.352;149.036;2022-10-17T15:11:25;1.60;;;0.70;;
39694;SDS011;25367;-35.352;149.036;2022-10-17T15:13:55;1.13;;;0.60;;
39694;SDS011;25367;-35.352;149.036;2022-10-17T15:16:29;1.20;;;0.60;;